SJD weather

Los Cabos International Airport
San José del Cabo, Baja California Sur, Mexico

Public forecast

Using degrees Celsius for public forecast. Weather courtesy of forecast.io.

METAR (pilot weather report)

Retrieved 2019/04/26 14:48 UTC (34 minutes ago):

MMSD 261448Z 00000KT 12SM SKC 23/02 A2995 RMK SLP128 52009 905

TAF (pilot weather forecast)

Forecast is more than 6 hours old.

Retrieved 2019/04/26 06:07 UTC (9 hours ago):

TAF MMSD 260400Z 2606/2706 00000KT P6SM SKC FM261800 14014KT P6SM SCT120 BKN250 FM270500 00000KT P6SM SKC